sensor_id;sensor_type;location;lat;lon;timestamp;P1;durP1;ratioP1;P2;durP2;ratioP2
57828;SDS011;43657;52.698;6.314;2023-06-26T00:01:36;14.98;;;13.77;;
57828;SDS011;43657;52.698;6.314;2023-06-26T00:04:50;16.13;;;14.93;;
57828;SDS011;43657;52.698;6.314;2023-06-26T00:08:10;17.15;;;15.75;;
57828;SDS011;43657;52.698;6.314;2023-06-26T00:11:11;15.85;;;14.65;;
57828;SDS011;43657;52.698;6.314;2023-06-26T00:14:23;16.27;;;15.02;;
57828;SDS011;43657;52.698;6.314;2023-06-26T00:20:33;16.33;;;14.93;;
57828;SDS011;43657;52.698;6.314;2023-06-26T00:23:38;16.73;;;15.32;;
57828;SDS011;43657;52.698;6.314;2023-06-26T00:26:42;16.30;;;15.00;;
57828;SDS011;43657;52.698;6.314;2023-06-26T00:29:19;16.48;;;15.00;;
57828;SDS011;43657;52.698;6.314;2023-06-26T00:32:19;17.35;;;15.98;;
57828;SDS011;43657;52.698;6.314;2023-06-26T00:38:56;16.70;;;15.23;;
57828;SDS011;43657;52.698;6.314;2023-06-26T00:42:09;17.05;;;15.60;;
57828;SDS011;43657;52.698;6.314;2023-06-26T00:45:16;18.55;;;16.77;;
57828;SDS011;43657;52.698;6.314;2023-06-26T00:52:10;22.63;;;20.77;;
57828;SDS011;43657;52.698;6.314;2023-06-26T00:55:28;22.08;;;20.48;;
57828;SDS011;43657;52.698;6.314;2023-06-26T00:58:33;20.80;;;19.23;;
57828;SDS011;43657;52.698;6.314;2023-06-26T01:05:38;19.75;;;18.27;;
57828;SDS011;43657;52.698;6.314;2023-06-26T01:08:52;21.70;;;20.10;;
57828;SDS011;43657;52.698;6.314;2023-06-26T01:11:33;22.95;;;21.23;;
57828;SDS011;43657;52.698;6.314;2023-06-26T01:18:15;23.42;;;21.63;;
57828;SDS011;43657;52.698;6.314;2023-06-26T01:36:10;24.15;;;22.40;;
57828;SDS011;43657;52.698;6.314;2023-06-26T01:39:38;25.15;;;23.20;;
57828;SDS011;43657;52.698;6.314;2023-06-26T01:50:06;24.77;;;22.88;;
57828;SDS011;43657;52.698;6.314;2023-06-26T01:53:17;25.45;;;23.55;;
57828;SDS011;43657;52.698;6.314;2023-06-26T01:56:49;24.70;;;22.90;;
57828;SDS011;43657;52.698;6.314;2023-06-26T02:00:21;25.63;;;23.67;;
57828;SDS011;43657;52.698;6.314;2023-06-26T02:03:26;26.88;;;24.77;;
57828;SDS011;43657;52.698;6.314;2023-06-26T02:21:33;25.67;;;23.73;;
57828;SDS011;43657;52.698;6.314;2023-06-26T02:24:33;24.17;;;22.38;;
57828;SDS011;43657;52.698;6.314;2023-06-26T02:35:00;24.88;;;22.98;;
57828;SDS011;43657;52.698;6.314;2023-06-26T02:38:11;26.35;;;24.35;;
57828;SDS011;43657;52.698;6.314;2023-06-26T02:48:24;24.55;;;22.63;;
57828;SDS011;43657;52.698;6.314;2023-06-26T02:54:53;24.77;;;22.77;;
57828;SDS011;43657;52.698;6.314;2023-06-26T03:05:09;25.95;;;24.05;;
57828;SDS011;43657;52.698;6.314;2023-06-26T03:14:48;22.65;;;20.95;;
57828;SDS011;43657;52.698;6.314;2023-06-26T03:18:03;23.63;;;21.92;;
57828;SDS011;43657;52.698;6.314;2023-06-26T03:21:04;24.23;;;22.17;;
57828;SDS011;43657;52.698;6.314;2023-06-26T03:27:24;24.88;;;23.05;;
57828;SDS011;43657;52.698;6.314;2023-06-26T03:30:46;22.95;;;21.23;;
57828;SDS011;43657;52.698;6.314;2023-06-26T03:34:18;23.55;;;21.65;;
57828;SDS011;43657;52.698;6.314;2023-06-26T03:37:22;22.38;;;20.67;;
57828;SDS011;43657;52.698;6.314;2023-06-26T03:39:54;23.77;;;21.85;;
57828;SDS011;43657;52.698;6.314;2023-06-26T03:42:58;22.00;;;20.20;;
57828;SDS011;43657;52.698;6.314;2023-06-26T03:45:31;21.55;;;19.85;;
57828;SDS011;43657;52.698;6.314;2023-06-26T03:48:11;20.02;;;18.42;;
57828;SDS011;43657;52.698;6.314;2023-06-26T03:50:56;19.20;;;17.73;;
57828;SDS011;43657;52.698;6.314;2023-06-26T03:54:09;21.17;;;19.45;;
57828;SDS011;43657;52.698;6.314;2023-06-26T03:57:06;21.90;;;20.17;;
57828;SDS011;43657;52.698;6.314;2023-06-26T03:59:54;22.85;;;20.85;;
57828;SDS011;43657;52.698;6.314;2023-06-26T04:06:02;23.48;;;21.67;;
57828;SDS011;43657;52.698;6.314;2023-06-26T04:09:03;23.90;;;22.05;;
57828;SDS011;43657;52.698;6.314;2023-06-26T04:11:48;24.65;;;22.75;;
57828;SDS011;43657;52.698;6.314;2023-06-26T04:14:58;22.70;;;20.83;;
57828;SDS011;43657;52.698;6.314;2023-06-26T04:17:28;22.50;;;20.73;;
57828;SDS011;43657;52.698;6.314;2023-06-26T04:20:27;20.58;;;18.77;;
57828;SDS011;43657;52.698;6.314;2023-06-26T04:29:25;17.52;;;15.98;;
57828;SDS011;43657;52.698;6.314;2023-06-26T04:32:25;15.70;;;14.30;;
57828;SDS011;43657;52.698;6.314;2023-06-26T04:34:59;14.98;;;13.32;;
57828;SDS011;43657;52.698;6.314;2023-06-26T04:38:17;15.63;;;12.18;;
57828;SDS011;43657;52.698;6.314;2023-06-26T04:41:11;14.60;;;11.77;;
57828;SDS011;43657;52.698;6.314;2023-06-26T04:44:25;16.00;;;11.20;;
57828;SDS011;43657;52.698;6.314;2023-06-26T04:47:52;15.02;;;11.57;;
57828;SDS011;43657;52.698;6.314;2023-06-26T04:50:56;15.60;;;11.50;;
57828;SDS011;43657;52.698;6.314;2023-06-26T04:57:06;15.50;;;10.45;;
57828;SDS011;43657;52.698;6.314;2023-06-26T05:00:04;16.67;;;10.68;;
57828;SDS011;43657;52.698;6.314;2023-06-26T05:03:04;14.07;;;9.97;;
57828;SDS011;43657;52.698;6.314;2023-06-26T05:05:36;15.05;;;10.80;;
57828;SDS011;43657;52.698;6.314;2023-06-26T05:08:28;16.00;;;10.30;;
57828;SDS011;43657;52.698;6.314;2023-06-26T05:10:55;13.27;;;10.15;;
57828;SDS011;43657;52.698;6.314;2023-06-26T05:16:42;14.93;;;10.18;;
57828;SDS011;43657;52.698;6.314;2023-06-26T05:19:17;14.68;;;9.73;;
57828;SDS011;43657;52.698;6.314;2023-06-26T05:21:46;12.80;;;10.35;;
57828;SDS011;43657;52.698;6.314;2023-06-26T05:24:33;14.48;;;10.32;;
57828;SDS011;43657;52.698;6.314;2023-06-26T05:27:11;13.07;;;10.25;;
57828;SDS011;43657;52.698;6.314;2023-06-26T05:29:58;14.20;;;10.20;;
57828;SDS011;43657;52.698;6.314;2023-06-26T05:32:44;14.10;;;10.20;;
57828;SDS011;43657;52.698;6.314;2023-06-26T05:36:04;13.82;;;10.02;;
57828;SDS011;43657;52.698;6.314;2023-06-26T05:38:42;11.52;;;9.23;;
57828;SDS011;43657;52.698;6.314;2023-06-26T05:41:33;12.27;;;9.48;;
57828;SDS011;43657;52.698;6.314;2023-06-26T05:44:34;10.30;;;7.60;;
57828;SDS011;43657;52.698;6.314;2023-06-26T05:47:36;13.90;;;7.05;;
57828;SDS011;43657;52.698;6.314;2023-06-26T05:50:28;9.05;;;6.10;;
57828;SDS011;43657;52.698;6.314;2023-06-26T05:56:47;9.88;;;6.72;;
57828;SDS011;43657;52.698;6.314;2023-06-26T05:59:33;9.15;;;5.93;;
57828;SDS011;43657;52.698;6.314;2023-06-26T06:02:35;10.35;;;5.72;;
57828;SDS011;43657;52.698;6.314;2023-06-26T06:05:37;8.63;;;5.00;;
57828;SDS011;43657;52.698;6.314;2023-06-26T06:08:15;6.40;;;4.25;;
57828;SDS011;43657;52.698;6.314;2023-06-26T06:24:29;6.15;;;2.83;;
57828;SDS011;43657;52.698;6.314;2023-06-26T06:38:00;5.78;;;2.78;;
57828;SDS011;43657;52.698;6.314;2023-06-26T06:49:22;5.38;;;2.60;;
57828;SDS011;43657;52.698;6.314;2023-06-26T06:56:30;6.50;;;2.67;;
57828;SDS011;43657;52.698;6.314;2023-06-26T07:04:10;4.25;;;2.70;;
57828;SDS011;43657;52.698;6.314;2023-06-26T07:07:54;6.13;;;3.00;;
57828;SDS011;43657;52.698;6.314;2023-06-26T07:41:56;5.23;;;2.50;;
57828;SDS011;43657;52.698;6.314;2023-06-26T09:14:23;6.70;;;2.60;;
57828;SDS011;43657;52.698;6.314;2023-06-26T09:36:19;6.32;;;3.10;;
57828;SDS011;43657;52.698;6.314;2023-06-26T09:51:43;5.22;;;2.60;;
57828;SDS011;43657;52.698;6.314;2023-06-26T09:54:46;4.47;;;2.85;;
57828;SDS011;43657;52.698;6.314;2023-06-26T09:57:50;6.32;;;2.80;;
57828;SDS011;43657;52.698;6.314;2023-06-26T10:09:21;6.22;;;2.72;;
57828;SDS011;43657;52.698;6.314;2023-06-26T10:12:38;4.57;;;2.67;;
57828;SDS011;43657;52.698;6.314;2023-06-26T10:16:13;5.57;;;2.25;;
57828;SDS011;43657;52.698;6.314;2023-06-26T10:23:01;5.95;;;2.50;;
57828;SDS011;43657;52.698;6.314;2023-06-26T10:30:00;4.55;;;2.10;;
57828;SDS011;43657;52.698;6.314;2023-06-26T10:43:15;4.25;;;1.95;;
57828;SDS011;43657;52.698;6.314;2023-06-26T11:02:16;6.50;;;2.10;;
57828;SDS011;43657;52.698;6.314;2023-06-26T11:16:06;3.88;;;2.17;;
57828;SDS011;43657;52.698;6.314;2023-06-26T11:23:49;5.07;;;1.73;;
57828;SDS011;43657;52.698;6.314;2023-06-26T11:30:48;4.80;;;1.95;;
57828;SDS011;43657;52.698;6.314;2023-06-26T11:37:40;4.10;;;1.75;;
57828;SDS011;43657;52.698;6.314;2023-06-26T11:44:57;4.35;;;1.60;;
57828;SDS011;43657;52.698;6.314;2023-06-26T12:04:50;4.85;;;1.40;;
57828;SDS011;43657;52.698;6.314;2023-06-26T12:08:22;4.13;;;1.35;;
57828;SDS011;43657;52.698;6.314;2023-06-26T12:19:07;8.13;;;1.92;;
57828;SDS011;43657;52.698;6.314;2023-06-26T12:30:39;3.38;;;1.52;;
57828;SDS011;43657;52.698;6.314;2023-06-26T12:51:05;8.48;;;1.55;;
57828;SDS011;43657;52.698;6.314;2023-06-26T12:54:38;5.65;;;1.80;;
57828;SDS011;43657;52.698;6.314;2023-06-26T13:05:07;4.63;;;1.60;;
57828;SDS011;43657;52.698;6.314;2023-06-26T13:21:58;3.47;;;1.20;;
57828;SDS011;43657;52.698;6.314;2023-06-26T13:25:26;3.58;;;1.60;;
57828;SDS011;43657;52.698;6.314;2023-06-26T13:28:51;5.32;;;1.70;;
57828;SDS011;43657;52.698;6.314;2023-06-26T13:36:31;3.47;;;1.40;;
57828;SDS011;43657;52.698;6.314;2023-06-26T13:40:26;5.47;;;1.67;;
57828;SDS011;43657;52.698;6.314;2023-06-26T14:28:49;3.05;;;1.20;;
57828;SDS011;43657;52.698;6.314;2023-06-26T15:09:14;5.90;;;1.98;;
57828;SDS011;43657;52.698;6.314;2023-06-26T16:37:12;5.95;;;1.80;;
57828;SDS011;43657;52.698;6.314;2023-06-26T16:40:31;3.90;;;1.60;;
57828;SDS011;43657;52.698;6.314;2023-06-26T16:43:48;5.20;;;1.75;;
57828;SDS011;43657;52.698;6.314;2023-06-26T16:47:05;4.50;;;1.30;;
57828;SDS011;43657;52.698;6.314;2023-06-26T16:57:56;2.97;;;1.20;;
57828;SDS011;43657;52.698;6.314;2023-06-26T17:36:48;4.72;;;1.60;;
57828;SDS011;43657;52.698;6.314;2023-06-26T18:36:05;5.35;;;1.83;;
57828;SDS011;43657;52.698;6.314;2023-06-26T18:39:45;4.30;;;1.55;;
57828;SDS011;43657;52.698;6.314;2023-06-26T18:57:20;5.45;;;1.70;;
57828;SDS011;43657;52.698;6.314;2023-06-26T18:59:45;4.47;;;1.48;;
57828;SDS011;43657;52.698;6.314;2023-06-26T19:02:11;5.25;;;1.70;;
57828;SDS011;43657;52.698;6.314;2023-06-26T19:04:36;5.88;;;2.00;;
57828;SDS011;43657;52.698;6.314;2023-06-26T19:07:04;6.38;;;1.80;;
57828;SDS011;43657;52.698;6.314;2023-06-26T19:09:29;6.00;;;1.70;;
57828;SDS011;43657;52.698;6.314;2023-06-26T19:11:56;5.20;;;1.75;;
57828;SDS011;43657;52.698;6.314;2023-06-26T19:14:22;4.55;;;1.70;;
57828;SDS011;43657;52.698;6.314;2023-06-26T19:16:47;6.90;;;1.98;;
57828;SDS011;43657;52.698;6.314;2023-06-26T19:19:13;4.68;;;1.70;;
57828;SDS011;43657;52.698;6.314;2023-06-26T19:21:39;5.25;;;1.80;;
57828;SDS011;43657;52.698;6.314;2023-06-26T19:24:04;4.32;;;1.85;;
57828;SDS011;43657;52.698;6.314;2023-06-26T19:26:30;4.25;;;1.70;;
57828;SDS011;43657;52.698;6.314;2023-06-26T19:28:55;7.05;;;1.90;;
57828;SDS011;43657;52.698;6.314;2023-06-26T19:31:21;5.70;;;2.10;;
57828;SDS011;43657;52.698;6.314;2023-06-26T19:33:48;5.10;;;1.60;;
57828;SDS011;43657;52.698;6.314;2023-06-26T19:36:13;6.93;;;2.10;;
57828;SDS011;43657;52.698;6.314;2023-06-26T19:38:40;5.95;;;1.80;;
57828;SDS011;43657;52.698;6.314;2023-06-26T19:41:05;7.38;;;1.90;;
57828;SDS011;43657;52.698;6.314;2023-06-26T19:43:31;7.85;;;1.80;;
57828;SDS011;43657;52.698;6.314;2023-06-26T19:45:56;6.07;;;1.80;;
57828;SDS011;43657;52.698;6.314;2023-06-26T19:48:22;7.68;;;1.80;;
57828;SDS011;43657;52.698;6.314;2023-06-26T19:50:48;6.15;;;2.50;;
57828;SDS011;43657;52.698;6.314;2023-06-26T19:53:13;6.88;;;2.20;;
57828;SDS011;43657;52.698;6.314;2023-06-26T19:55:39;6.40;;;1.90;;
57828;SDS011;43657;52.698;6.314;2023-06-26T19:58:04;5.43;;;1.90;;
57828;SDS011;43657;52.698;6.314;2023-06-26T20:00:30;6.13;;;2.13;;
57828;SDS011;43657;52.698;6.314;2023-06-26T20:02:56;7.75;;;2.50;;
57828;SDS011;43657;52.698;6.314;2023-06-26T20:05:21;6.18;;;2.00;;
57828;SDS011;43657;52.698;6.314;2023-06-26T20:07:47;5.00;;;2.40;;
57828;SDS011;43657;52.698;6.314;2023-06-26T20:10:13;6.53;;;2.38;;
57828;SDS011;43657;52.698;6.314;2023-06-26T20:12:38;5.57;;;2.10;;
57828;SDS011;43657;52.698;6.314;2023-06-26T20:15:04;7.43;;;2.38;;
57828;SDS011;43657;52.698;6.314;2023-06-26T20:17:30;5.90;;;2.17;;
57828;SDS011;43657;52.698;6.314;2023-06-26T20:19:56;6.22;;;2.42;;
57828;SDS011;43657;52.698;6.314;2023-06-26T20:22:22;4.90;;;2.42;;
57828;SDS011;43657;52.698;6.314;2023-06-26T20:24:48;5.85;;;2.17;;
57828;SDS011;43657;52.698;6.314;2023-06-26T20:27:14;5.93;;;2.20;;
57828;SDS011;43657;52.698;6.314;2023-06-26T20:29:39;8.30;;;2.20;;
57828;SDS011;43657;52.698;6.314;2023-06-26T20:32:05;5.75;;;2.15;;
57828;SDS011;43657;52.698;6.314;2023-06-26T20:34:31;6.97;;;2.10;;
57828;SDS011;43657;52.698;6.314;2023-06-26T20:36:56;5.07;;;2.00;;
57828;SDS011;43657;52.698;6.314;2023-06-26T20:39:22;6.13;;;2.40;;
57828;SDS011;43657;52.698;6.314;2023-06-26T20:41:51;6.60;;;2.58;;
57828;SDS011;43657;52.698;6.314;2023-06-26T20:44:18;7.30;;;2.70;;
57828;SDS011;43657;52.698;6.314;2023-06-26T20:46:43;6.88;;;2.22;;
57828;SDS011;43657;52.698;6.314;2023-06-26T20:49:09;5.82;;;2.45;;
57828;SDS011;43657;52.698;6.314;2023-06-26T20:51:35;8.02;;;2.63;;
57828;SDS011;43657;52.698;6.314;2023-06-26T20:54:02;5.45;;;2.17;;
57828;SDS011;43657;52.698;6.314;2023-06-26T20:56:28;5.60;;;2.70;;
57828;SDS011;43657;52.698;6.314;2023-06-26T20:58:54;5.47;;;3.00;;
57828;SDS011;43657;52.698;6.314;2023-06-26T21:01:19;7.25;;;2.70;;
57828;SDS011;43657;52.698;6.314;2023-06-26T21:03:45;7.25;;;2.70;;
57828;SDS011;43657;52.698;6.314;2023-06-26T21:06:11;5.30;;;2.80;;
57828;SDS011;43657;52.698;6.314;2023-06-26T21:08:37;5.15;;;2.65;;
57828;SDS011;43657;52.698;6.314;2023-06-26T21:11:02;5.47;;;2.50;;
57828;SDS011;43657;52.698;6.314;2023-06-26T21:13:28;8.30;;;3.25;;
57828;SDS011;43657;52.698;6.314;2023-06-26T21:15:53;5.57;;;2.70;;
57828;SDS011;43657;52.698;6.314;2023-06-26T21:18:20;6.32;;;2.53;;
57828;SDS011;43657;52.698;6.314;2023-06-26T21:20:46;5.30;;;2.78;;
57828;SDS011;43657;52.698;6.314;2023-06-26T21:23:12;5.53;;;3.13;;
57828;SDS011;43657;52.698;6.314;2023-06-26T21:25:37;5.88;;;3.08;;
57828;SDS011;43657;52.698;6.314;2023-06-26T21:28:03;6.22;;;3.10;;
57828;SDS011;43657;52.698;6.314;2023-06-26T21:30:28;6.20;;;3.55;;
57828;SDS011;43657;52.698;6.314;2023-06-26T21:32:56;5.15;;;3.28;;
57828;SDS011;43657;52.698;6.314;2023-06-26T21:35:21;6.07;;;3.10;;
57828;SDS011;43657;52.698;6.314;2023-06-26T21:37:47;9.50;;;4.20;;
57828;SDS011;43657;52.698;6.314;2023-06-26T21:40:13;6.82;;;3.95;;
57828;SDS011;43657;52.698;6.314;2023-06-26T21:42:38;7.40;;;4.45;;
57828;SDS011;43657;52.698;6.314;2023-06-26T21:45:04;8.63;;;3.90;;
57828;SDS011;43657;52.698;6.314;2023-06-26T21:47:30;7.80;;;4.50;;
57828;SDS011;43657;52.698;6.314;2023-06-26T21:49:55;7.38;;;4.20;;
57828;SDS011;43657;52.698;6.314;2023-06-26T21:52:21;6.25;;;4.47;;
57828;SDS011;43657;52.698;6.314;2023-06-26T21:54:47;8.80;;;3.78;;
57828;SDS011;43657;52.698;6.314;2023-06-26T21:57:12;7.95;;;3.88;;
57828;SDS011;43657;52.698;6.314;2023-06-26T21:59:38;7.80;;;3.83;;
57828;SDS011;43657;52.698;6.314;2023-06-26T22:02:03;8.40;;;4.00;;
57828;SDS011;43657;52.698;6.314;2023-06-26T22:04:29;7.25;;;3.65;;
57828;SDS011;43657;52.698;6.314;2023-06-26T22:06:55;6.30;;;3.60;;
57828;SDS011;43657;52.698;6.314;2023-06-26T22:09:20;9.45;;;4.55;;
57828;SDS011;43657;52.698;6.314;2023-06-26T22:11:46;7.13;;;3.83;;
57828;SDS011;43657;52.698;6.314;2023-06-26T22:14:11;7.25;;;4.00;;
57828;SDS011;43657;52.698;6.314;2023-06-26T22:16:37;7.13;;;3.80;;
57828;SDS011;43657;52.698;6.314;2023-06-26T22:19:02;7.03;;;4.00;;
57828;SDS011;43657;52.698;6.314;2023-06-26T22:21:28;6.68;;;3.78;;
57828;SDS011;43657;52.698;6.314;2023-06-26T22:23:54;5.50;;;4.07;;
57828;SDS011;43657;52.698;6.314;2023-06-26T22:26:19;6.15;;;4.50;;
57828;SDS011;43657;52.698;6.314;2023-06-26T22:28:45;6.25;;;4.43;;
57828;SDS011;43657;52.698;6.314;2023-06-26T22:31:10;7.82;;;4.82;;
57828;SDS011;43657;52.698;6.314;2023-06-26T22:33:36;7.18;;;4.47;;
57828;SDS011;43657;52.698;6.314;2023-06-26T22:36:01;5.30;;;3.63;;
57828;SDS011;43657;52.698;6.314;2023-06-26T22:38:27;6.57;;;4.55;;
57828;SDS011;43657;52.698;6.314;2023-06-26T22:40:53;7.75;;;4.22;;
57828;SDS011;43657;52.698;6.314;2023-06-26T22:43:18;7.47;;;4.80;;
57828;SDS011;43657;52.698;6.314;2023-06-26T22:45:44;5.93;;;4.50;;
57828;SDS011;43657;52.698;6.314;2023-06-26T22:48:10;9.73;;;5.00;;
57828;SDS011;43657;52.698;6.314;2023-06-26T22:50:35;8.40;;;5.07;;
57828;SDS011;43657;52.698;6.314;2023-06-26T22:53:01;5.82;;;4.38;;
57828;SDS011;43657;52.698;6.314;2023-06-26T22:55:27;8.02;;;4.60;;
57828;SDS011;43657;52.698;6.314;2023-06-26T22:57:55;7.93;;;5.00;;
57828;SDS011;43657;52.698;6.314;2023-06-26T23:00:21;8.23;;;5.25;;
57828;SDS011;43657;52.698;6.314;2023-06-26T23:02:46;8.00;;;5.28;;
57828;SDS011;43657;52.698;6.314;2023-06-26T23:05:12;8.13;;;5.03;;
57828;SDS011;43657;52.698;6.314;2023-06-26T23:07:38;6.75;;;5.22;;
57828;SDS011;43657;52.698;6.314;2023-06-26T23:10:04;5.88;;;4.45;;
57828;SDS011;43657;52.698;6.314;2023-06-26T23:12:30;8.45;;;5.55;;
57828;SDS011;43657;52.698;6.314;2023-06-26T23:14:56;7.30;;;5.10;;
57828;SDS011;43657;52.698;6.314;2023-06-26T23:17:22;6.90;;;4.70;;
57828;SDS011;43657;52.698;6.314;2023-06-26T23:19:48;7.05;;;4.95;;
57828;SDS011;43657;52.698;6.314;2023-06-26T23:22:14;6.30;;;4.93;;
57828;SDS011;43657;52.698;6.314;2023-06-26T23:24:43;8.57;;;6.25;;
57828;SDS011;43657;52.698;6.314;2023-06-26T23:27:08;8.25;;;5.40;;
57828;SDS011;43657;52.698;6.314;2023-06-26T23:29:35;7.43;;;5.47;;
57828;SDS011;43657;52.698;6.314;2023-06-26T23:32:01;7.95;;;5.22;;
57828;SDS011;43657;52.698;6.314;2023-06-26T23:34:33;7.82;;;5.47;;
57828;SDS011;43657;52.698;6.314;2023-06-26T23:37:09;7.75;;;5.28;;
57828;SDS011;43657;52.698;6.314;2023-06-26T23:39:42;6.53;;;5.53;;
57828;SDS011;43657;52.698;6.314;2023-06-26T23:42:10;6.97;;;5.30;;
57828;SDS011;43657;52.698;6.314;2023-06-26T23:44:36;7.28;;;5.85;;
57828;SDS011;43657;52.698;6.314;2023-06-26T23:47:02;7.65;;;5.50;;
57828;SDS011;43657;52.698;6.314;2023-06-26T23:49:28;9.07;;;6.25;;
57828;SDS011;43657;52.698;6.314;2023-06-26T23:51:55;9.15;;;6.65;;
57828;SDS011;43657;52.698;6.314;2023-06-26T23:54:21;7.60;;;5.88;;
57828;SDS011;43657;52.698;6.314;2023-06-26T23:56:46;9.85;;;7.30;;
57828;SDS011;43657;52.698;6.314;2023-06-26T23:59:12;8.07;;;6.68;;
